Time;durP1;ratioP1;P1;durP2;ratioP2;P2;SDS_P1;SDS_P2;PMS_P1;PMS_P2;Temp;Humidity;BMP_temperature;BMP_pressure;BME280_temperature;BME280_humidity;BME280_pressure;Samples;Min_cycle;Max_cycle;Signal;HPM_P1;HPM_P2
2023/03/10 00:02:20;;;;;;;9.40;3.47;;;;;;;;;;5091734;28;20796;-48
2023/03/10 00:04:49;;;;;;;4.93;3.33;;;;;;;;;;5089825;28;20423;-49
2023/03/10 00:07:15;;;;;;;7.50;3.20;;;;;;;;;;5100341;28;20411;-47
2023/03/10 00:09:41;;;;;;;4.93;3.13;;;;;;;;;;5085553;28;20423;-47
2023/03/10 00:12:08;;;;;;;5.43;3.30;;;;;;;;;;5091163;28;20837;-47
2023/03/10 00:14:34;;;;;;;4.03;2.77;;;;;;;;;;5090327;28;20534;-47
2023/03/10 00:17:00;;;;;;;6.57;2.90;;;;;;;;;;5089497;28;20500;-47
2023/03/10 00:19:26;;;;;;;6.07;3.03;;;;;;;;;;5089704;28;20465;-47
2023/03/10 00:21:52;;;;;;;4.20;2.43;;;;;;;;;;5095097;28;20466;-47
2023/03/10 00:24:18;;;;;;;6.03;2.70;;;;;;;;;;5086479;28;20410;-47
2023/03/10 00:26:45;;;;;;;5.13;3.20;;;;;;;;;;5097270;28;20465;-48
2023/03/10 00:29:12;;;;;;;5.53;2.57;;;;;;;;;;5090384;28;20411;-47
2023/03/10 00:31:38;;;;;;;6.63;2.33;;;;;;;;;;5087124;28;20457;-47
2023/03/10 00:34:04;;;;;;;6.67;3.10;;;;;;;;;;5093146;28;20473;-49
2023/03/10 00:36:31;;;;;;;6.20;2.63;;;;;;;;;;5087153;28;20420;-47
2023/03/10 00:38:59;;;;;;;3.83;3.50;;;;;;;;;;5091559;28;20510;-48
2023/03/10 00:41:29;;;;;;;5.07;2.50;;;;;;;;;;5092505;28;20818;-47
2023/03/10 00:43:56;;;;;;;7.73;2.37;;;;;;;;;;5093103;28;20415;-47
2023/03/10 00:46:22;;;;;;;5.30;3.00;;;;;;;;;;5097573;28;20473;-47
2023/03/10 00:48:48;;;;;;;6.40;3.10;;;;;;;;;;5086830;28;20501;-48
2023/03/10 00:51:14;;;;;;;16.40;3.33;;;;;;;;;;5092324;28;20895;-48
2023/03/10 00:53:40;;;;;;;4.87;3.43;;;;;;;;;;5093101;28;20526;-48
2023/03/10 00:56:32;;;;;;;6.57;2.80;;;;;;;;;;5093200;28;20417;-47
2023/03/10 00:58:59;;;;;;;4.17;2.97;;;;;;;;;;5086434;28;20432;-48
2023/03/10 01:01:29;;;;;;;5.87;3.17;;;;;;;;;;5089385;28;20851;-47
2023/03/10 01:03:57;;;;;;;3.17;2.87;;;;;;;;;;5090277;28;20428;-47
2023/03/10 01:06:23;;;;;;;5.93;3.37;;;;;;;;;;5089514;28;20504;-47
2023/03/10 01:08:49;;;;;;;2.73;2.50;;;;;;;;;;5092856;28;20416;-47
2023/03/10 01:11:16;;;;;;;5.10;2.77;;;;;;;;;;5091990;28;20403;-49
2023/03/10 01:13:42;;;;;;;2.90;2.70;;;;;;;;;;5093216;28;20412;-47
2023/03/10 01:16:08;;;;;;;3.83;2.80;;;;;;;;;;5084702;28;20433;-47
2023/03/10 01:18:34;;;;;;;3.87;3.33;;;;;;;;;;5092650;28;20415;-47
2023/03/10 01:21:00;;;;;;;4.17;3.47;;;;;;;;;;5090855;28;20787;-47
2023/03/10 01:23:26;;;;;;;3.60;3.00;;;;;;;;;;5092183;28;20479;-47
2023/03/10 01:25:52;;;;;;;4.80;3.20;;;;;;;;;;5090649;28;20463;-47
2023/03/10 01:28:19;;;;;;;7.23;3.30;;;;;;;;;;5092741;28;20887;-48
2023/03/10 01:30:45;;;;;;;5.30;2.93;;;;;;;;;;5088956;28;20506;-47
2023/03/10 01:33:11;;;;;;;4.23;3.07;;;;;;;;;;5084466;28;20438;-47
2023/03/10 01:35:37;;;;;;;3.83;2.70;;;;;;;;;;5092892;28;20514;-47
2023/03/10 01:38:03;;;;;;;2.87;2.60;;;;;;;;;;5090240;28;20895;-47
2023/03/10 01:40:29;;;;;;;6.40;2.53;;;;;;;;;;5091655;28;20411;-47
2023/03/10 01:43:14;;;;;;;2.10;2.00;;;;;;;;;;5092012;28;20431;-47
2023/03/10 01:45:40;;;;;;;1.93;1.80;;;;;;;;;;5088694;28;20458;-47
2023/03/10 01:48:06;;;;;;;2.53;2.33;;;;;;;;;;5092006;28;20468;-46
2023/03/10 01:50:32;;;;;;;1.73;1.63;;;;;;;;;;5090120;28;20422;-47
2023/03/10 01:52:58;;;;;;;1.73;1.63;;;;;;;;;;5090426;28;20496;-47
2023/03/10 01:55:26;;;;;;;1.50;1.40;;;;;;;;;;5091989;28;20448;-47
2023/03/10 01:57:56;;;;;;;1.33;1.23;;;;;;;;;;5091884;28;20419;-48
2023/03/10 02:00:23;;;;;;;1.60;1.50;;;;;;;;;;5086067;28;20500;-46
2023/03/10 02:02:55;;;;;;;2.77;1.40;;;;;;;;;;5096595;28;20427;-47
2023/03/10 02:05:21;;;;;;;1.77;1.67;;;;;;;;;;5084175;28;20611;-48
2023/03/10 02:07:47;;;;;;;3.37;1.60;;;;;;;;;;5094563;28;20934;-47
2023/03/10 02:10:14;;;;;;;1.40;1.30;;;;;;;;;;5090718;28;20414;-47
2023/03/10 02:12:42;;;;;;;6.10;1.57;;;;;;;;;;5093547;28;20435;-46
2023/03/10 02:15:08;;;;;;;1.70;1.60;;;;;;;;;;5083172;28;20465;-47
2023/03/10 02:17:34;;;;;;;1.70;1.60;;;;;;;;;;5090742;28;20415;-46
2023/03/10 02:20:20;;;;;;;1.77;1.67;;;;;;;;;;5091453;28;20422;-49
2023/03/10 02:22:47;;;;;;;2.13;1.70;;;;;;;;;;5091573;28;20435;-47
2023/03/10 02:25:33;;;;;;;1.80;1.70;;;;;;;;;;5091351;28;20451;-46
2023/03/10 02:27:59;;;;;;;1.97;1.50;;;;;;;;;;5096817;28;20409;-47
2023/03/10 02:30:26;;;;;;;1.60;1.50;;;;;;;;;;5079490;28;21273;-47
2023/03/10 02:32:55;;;;;;;8.43;2.30;;;;;;;;;;5096528;28;20438;-47
2023/03/10 02:35:21;;;;;;;3.27;1.93;;;;;;;;;;5091546;28;20418;-47
2023/03/10 02:37:49;;;;;;;2.17;2.07;;;;;;;;;;5091459;28;20505;-48
2023/03/10 02:40:48;;;;;;;3.57;1.90;;;;;;;;;;5085019;28;20411;-47
2023/03/10 02:43:25;;;;;;;2.00;1.87;;;;;;;;;;5083382;28;20448;-47
2023/03/10 02:45:53;;;;;;;3.33;2.20;;;;;;;;;;5091542;28;20822;-49
2023/03/10 02:48:22;;;;;;;5.47;2.50;;;;;;;;;;5091602;28;20415;-48
2023/03/10 02:50:48;;;;;;;3.17;2.87;;;;;;;;;;5090532;28;20415;-49
2023/03/10 02:53:19;;;;;;;3.40;3.10;;;;;;;;;;5096332;28;20923;-48
2023/03/10 02:55:45;;;;;;;2.97;2.73;;;;;;;;;;5091310;28;20457;-48
2023/03/10 02:58:11;;;;;;;3.40;2.77;;;;;;;;;;5091410;28;20407;-48
2023/03/10 03:00:38;;;;;;;5.03;2.97;;;;;;;;;;5083707;28;20432;-49
2023/03/10 03:03:04;;;;;;;3.40;3.10;;;;;;;;;;5092686;28;20898;-49
2023/03/10 03:05:30;;;;;;;6.30;3.40;;;;;;;;;;5087382;28;20493;-49
2023/03/10 03:07:56;;;;;;;7.63;3.50;;;;;;;;;;5085524;28;20447;-49
2023/03/10 03:10:22;;;;;;;3.43;3.03;;;;;;;;;;5085962;28;20419;-48
2023/03/10 03:12:50;;;;;;;3.10;2.57;;;;;;;;;;5091570;28;20437;-47
2023/03/10 03:15:16;;;;;;;2.50;2.30;;;;;;;;;;5091263;28;20920;-48
2023/03/10 03:17:42;;;;;;;2.57;2.23;;;;;;;;;;5092796;28;20422;-48
2023/03/10 03:20:13;;;;;;;2.07;1.97;;;;;;;;;;5086552;28;20415;-47
2023/03/10 03:22:39;;;;;;;2.10;2.00;;;;;;;;;;5090010;28;20795;-48
2023/03/10 03:25:05;;;;;;;3.50;1.87;;;;;;;;;;5094410;28;20450;-48
2023/03/10 03:27:31;;;;;;;3.77;2.03;;;;;;;;;;5094429;28;20411;-47
2023/03/10 03:29:57;;;;;;;3.93;2.27;;;;;;;;;;5094484;28;20410;-46
2023/03/10 03:32:23;;;;;;;3.57;2.10;;;;;;;;;;5086720;28;20447;-47
2023/03/10 03:34:49;;;;;;;1.73;1.63;;;;;;;;;;5091835;28;20396;-48
2023/03/10 03:37:15;;;;;;;2.20;2.00;;;;;;;;;;5097980;28;20431;-49
2023/03/10 03:39:41;;;;;;;3.03;2.23;;;;;;;;;;5093321;28;20975;-48
2023/03/10 03:42:07;;;;;;;3.93;2.80;;;;;;;;;;5095412;28;20799;-49
2023/03/10 03:44:33;;;;;;;2.70;2.00;;;;;;;;;;5094246;28;20403;-49
2023/03/10 03:46:59;;;;;;;4.60;2.40;;;;;;;;;;5093079;28;20819;-49
2023/03/10 03:49:25;;;;;;;9.30;2.67;;;;;;;;;;5093289;28;20410;-48
2023/03/10 03:51:51;;;;;;;3.43;2.43;;;;;;;;;;5093263;28;20437;-47
2023/03/10 03:54:17;;;;;;;5.50;2.77;;;;;;;;;;5094445;28;20411;-49
2023/03/10 03:56:43;;;;;;;4.23;2.80;;;;;;;;;;5094478;28;20477;-47
2023/03/10 03:59:09;;;;;;;7.37;3.33;;;;;;;;;;5094229;28;20415;-49
2023/03/10 04:01:35;;;;;;;3.50;2.90;;;;;;;;;;5092358;28;20969;-48
2023/03/10 04:04:01;;;;;;;5.90;3.53;;;;;;;;;;5091134;28;20843;-48
2023/03/10 04:06:27;;;;;;;5.67;3.23;;;;;;;;;;5094021;28;20463;-48
2023/03/10 04:08:53;;;;;;;4.07;3.67;;;;;;;;;;5093416;28;20409;-48
2023/03/10 04:11:19;;;;;;;7.97;3.90;;;;;;;;;;5093348;28;20473;-48
2023/03/10 04:13:45;;;;;;;10.27;3.90;;;;;;;;;;5094028;28;20494;-49
2023/03/10 04:16:11;;;;;;;7.80;4.10;;;;;;;;;;5093914;28;20847;-48
2023/03/10 04:18:37;;;;;;;9.37;5.50;;;;;;;;;;5093826;28;20407;-48
2023/03/10 04:21:03;;;;;;;8.13;4.93;;;;;;;;;;5093168;28;20447;-47
2023/03/10 04:23:29;;;;;;;13.40;5.17;;;;;;;;;;5093268;28;20428;-48
2023/03/10 04:25:56;;;;;;;14.90;6.47;;;;;;;;;;5093722;28;20470;-48
2023/03/10 04:28:22;;;;;;;9.07;5.77;;;;;;;;;;5093855;28;20400;-49
2023/03/10 04:30:48;;;;;;;7.13;5.30;;;;;;;;;;5092969;28;20460;-47
2023/03/10 04:33:14;;;;;;;8.40;5.77;;;;;;;;;;5091890;28;20460;-47
2023/03/10 04:35:43;;;;;;;8.73;5.93;;;;;;;;;;5093575;28;20421;-47
2023/03/10 04:38:09;;;;;;;16.40;6.83;;;;;;;;;;5085753;28;20424;-49
2023/03/10 04:40:35;;;;;;;9.50;5.70;;;;;;;;;;5092868;28;20423;-49
2023/03/10 04:43:01;;;;;;;7.30;6.37;;;;;;;;;;5093436;28;20477;-49
2023/03/10 04:45:27;;;;;;;8.33;5.50;;;;;;;;;;5093370;28;20538;-48
2023/03/10 04:47:53;;;;;;;9.93;5.80;;;;;;;;;;5093294;28;20884;-48
2023/03/10 04:50:19;;;;;;;8.33;6.10;;;;;;;;;;5092713;28;20768;-48
2023/03/10 04:52:45;;;;;;;10.10;5.73;;;;;;;;;;5092604;28;20430;-47
2023/03/10 04:55:12;;;;;;;10.43;6.03;;;;;;;;;;5093186;28;20414;-49
2023/03/10 04:57:38;;;;;;;12.40;5.57;;;;;;;;;;5089480;28;20443;-48
2023/03/10 05:00:06;;;;;;;10.10;5.50;;;;;;;;;;5092610;28;20899;-47
2023/03/10 05:02:33;;;;;;;16.30;6.47;;;;;;;;;;5092923;28;20934;-48
2023/03/10 05:05:00;;;;;;;10.67;6.53;;;;;;;;;;5084715;28;20434;-49
2023/03/10 05:07:26;;;;;;;7.97;5.73;;;;;;;;;;5092953;28;20399;-48
2023/03/10 05:09:52;;;;;;;13.73;5.17;;;;;;;;;;5092723;28;20410;-47
2023/03/10 05:12:18;;;;;;;12.17;6.97;;;;;;;;;;5092072;28;20432;-48
2023/03/10 05:14:44;;;;;;;11.27;5.70;;;;;;;;;;5092621;28;20945;-48
2023/03/10 05:17:10;;;;;;;9.03;5.17;;;;;;;;;;5092848;28;20411;-49
2023/03/10 05:19:36;;;;;;;11.17;5.33;;;;;;;;;;5092270;28;20427;-47
2023/03/10 05:22:03;;;;;;;7.77;4.20;;;;;;;;;;5091979;28;20514;-47
2023/03/10 05:24:29;;;;;;;8.27;4.60;;;;;;;;;;5092754;28;20407;-47
2023/03/10 05:26:55;;;;;;;6.83;4.20;;;;;;;;;;5092663;28;20507;-48
2023/03/10 05:29:21;;;;;;;6.90;3.60;;;;;;;;;;5092432;28;20818;-47
2023/03/10 05:31:47;;;;;;;11.30;4.80;;;;;;;;;;5091980;28;20469;-47
2023/03/10 05:34:13;;;;;;;9.10;3.47;;;;;;;;;;5085485;28;20426;-49
2023/03/10 05:36:40;;;;;;;8.20;3.93;;;;;;;;;;5091942;28;20905;-47
2023/03/10 05:39:08;;;;;;;9.37;3.10;;;;;;;;;;5092250;28;20952;-47
2023/03/10 05:41:34;;;;;;;8.27;2.83;;;;;;;;;;5091642;28;20435;-47
2023/03/10 05:44:00;;;;;;;9.50;3.37;;;;;;;;;;5092430;28;20506;-47
2023/03/10 05:46:27;;;;;;;8.23;3.10;;;;;;;;;;5091784;28;20549;-49
2023/03/10 05:48:53;;;;;;;12.20;3.50;;;;;;;;;;5091819;28;20414;-48
2023/03/10 05:51:18;;;;;;;8.50;3.47;;;;;;;;;;5091402;28;20989;-47
2023/03/10 05:53:45;;;;;;;8.10;3.80;;;;;;;;;;5092121;28;20415;-48
2023/03/10 05:56:12;;;;;;;11.13;2.80;;;;;;;;;;5087017;28;20418;-49
2023/03/10 05:58:38;;;;;;;7.77;3.10;;;;;;;;;;5092041;28;20443;-47
2023/03/10 06:01:05;;;;;;;9.60;3.53;;;;;;;;;;5091303;28;20455;-48
2023/03/10 06:03:31;;;;;;;9.23;2.50;;;;;;;;;;5090635;28;20954;-47
2023/03/10 06:05:57;;;;;;;7.30;2.70;;;;;;;;;;5091878;28;20462;-47
2023/03/10 06:08:23;;;;;;;5.23;2.23;;;;;;;;;;5091265;28;20418;-47
2023/03/10 06:10:50;;;;;;;9.80;2.43;;;;;;;;;;5091210;28;20406;-49
2023/03/10 06:13:20;;;;;;;16.37;2.90;;;;;;;;;;5084964;28;20427;-49
2023/03/10 06:16:05;;;;;;;12.10;2.20;;;;;;;;;;5091634;28;20437;-49
2023/03/10 06:18:31;;;;;;;6.60;3.37;;;;;;;;;;5085782;28;20430;-48
2023/03/10 06:20:57;;;;;;;11.70;2.20;;;;;;;;;;5086479;28;20814;-47
2023/03/10 06:23:24;;;;;;;2.53;2.23;;;;;;;;;;5090995;28;20419;-47
2023/03/10 06:26:01;;;;;;;8.23;3.03;;;;;;;;;;5090772;28;20451;-47
2023/03/10 06:28:31;;;;;;;5.77;3.17;;;;;;;;;;5085324;28;20909;-47
2023/03/10 06:30:58;;;;;;;6.20;2.90;;;;;;;;;;5089690;28;20411;-48
2023/03/10 06:33:24;;;;;;;12.87;2.33;;;;;;;;;;5089227;28;20931;-50
2023/03/10 06:35:50;;;;;;;5.70;2.77;;;;;;;;;;5090740;28;20415;-47
2023/03/10 06:38:18;;;;;;;5.23;2.53;;;;;;;;;;5088873;28;20488;-47
2023/03/10 06:40:44;;;;;;;6.77;2.90;;;;;;;;;;5082562;28;20412;-48
2023/03/10 06:43:10;;;;;;;5.50;2.67;;;;;;;;;;5086179;28;20447;-47
2023/03/10 06:45:41;;;;;;;11.73;3.20;;;;;;;;;;5089892;28;20491;-48
2023/03/10 06:48:07;;;;;;;10.43;2.73;;;;;;;;;;5091375;28;20820;-47
2023/03/10 06:50:34;;;;;;;10.97;2.77;;;;;;;;;;5090131;28;20419;-48
2023/03/10 06:53:01;;;;;;;10.40;2.40;;;;;;;;;;5090803;28;20430;-47
2023/03/10 06:55:27;;;;;;;2.80;2.33;;;;;;;;;;5090839;28;20459;-47
2023/03/10 06:57:53;;;;;;;8.60;3.10;;;;;;;;;;5083561;28;20415;-48
2023/03/10 07:00:19;;;;;;;4.03;2.33;;;;;;;;;;5095703;28;20442;-47
2023/03/10 07:02:45;;;;;;;4.00;2.43;;;;;;;;;;5094395;28;20434;-47
2023/03/10 07:05:12;;;;;;;9.43;2.40;;;;;;;;;;5093129;28;20472;-47
2023/03/10 07:07:38;;;;;;;7.63;2.07;;;;;;;;;;5090780;28;20744;-47
2023/03/10 07:10:05;;;;;;;7.83;2.53;;;;;;;;;;5093767;28;20410;-46
2023/03/10 07:12:32;;;;;;;6.50;2.80;;;;;;;;;;5090455;28;20443;-47
2023/03/10 07:14:58;;;;;;;4.20;2.60;;;;;;;;;;5095424;28;20415;-48
2023/03/10 07:17:24;;;;;;;7.20;2.83;;;;;;;;;;5093718;28;20407;-48
2023/03/10 07:19:52;;;;;;;5.77;2.77;;;;;;;;;;5094506;28;20403;-47
2023/03/10 07:22:18;;;;;;;8.07;2.60;;;;;;;;;;5093115;28;20431;-47
2023/03/10 07:24:44;;;;;;;8.17;2.70;;;;;;;;;;5095568;28;20408;-49
2023/03/10 07:27:09;;;;;;;3.10;2.60;;;;;;;;;;5085842;28;20455;-48
2023/03/10 07:29:35;;;;;;;8.50;3.07;;;;;;;;;;5094765;28;20415;-48
2023/03/10 07:32:01;;;;;;;10.00;3.10;;;;;;;;;;5093666;28;20440;-48
2023/03/10 07:34:29;;;;;;;8.63;4.27;;;;;;;;;;5094821;28;20455;-48
2023/03/10 07:36:54;;;;;;;7.93;3.07;;;;;;;;;;5094640;28;20429;-47
2023/03/10 07:39:20;;;;;;;11.93;3.50;;;;;;;;;;5094517;28;20813;-47
2023/03/10 07:41:46;;;;;;;6.90;3.10;;;;;;;;;;5092159;28;20490;-48
2023/03/10 07:44:14;;;;;;;8.03;3.57;;;;;;;;;;5094628;28;20415;-47
2023/03/10 07:46:41;;;;;;;3.30;2.60;;;;;;;;;;5094133;28;20463;-47
2023/03/10 07:49:07;;;;;;;6.10;3.70;;;;;;;;;;5092289;28;20420;-47
2023/03/10 07:51:33;;;;;;;13.63;3.60;;;;;;;;;;5085499;28;20794;-47
2023/03/10 07:54:00;;;;;;;8.83;4.30;;;;;;;;;;5086973;28;20448;-47
2023/03/10 07:56:26;;;;;;;7.50;3.57;;;;;;;;;;5092717;28;20879;-48
2023/03/10 07:58:52;;;;;;;7.13;3.57;;;;;;;;;;5095350;28;20411;-46
2023/03/10 08:01:19;;;;;;;8.03;3.53;;;;;;;;;;5092497;28;20895;-46
2023/03/10 08:03:47;;;;;;;5.73;4.03;;;;;;;;;;5094064;28;20774;-46
2023/03/10 08:06:17;;;;;;;10.33;3.80;;;;;;;;;;5095189;28;20459;-47
2023/03/10 08:08:43;;;;;;;8.70;4.30;;;;;;;;;;5093439;28;20496;-46
2023/03/10 08:11:09;;;;;;;8.03;4.43;;;;;;;;;;5099332;28;20444;-48
2023/03/10 08:13:36;;;;;;;9.30;5.50;;;;;;;;;;5093890;28;20431;-47
2023/03/10 08:16:02;;;;;;;5.10;4.60;;;;;;;;;;5087567;28;20847;-47
2023/03/10 08:18:30;;;;;;;14.67;4.70;;;;;;;;;;5088720;28;20434;-46
2023/03/10 08:20:57;;;;;;;8.73;4.47;;;;;;;;;;5098391;28;20506;-47
2023/03/10 08:23:23;;;;;;;12.83;5.37;;;;;;;;;;5093707;28;20787;-46
2023/03/10 08:25:51;;;;;;;6.23;4.70;;;;;;;;;;5099095;28;20460;-47
2023/03/10 08:28:17;;;;;;;9.33;5.10;;;;;;;;;;5093643;28;20439;-47
2023/03/10 08:30:43;;;;;;;7.03;4.60;;;;;;;;;;5094471;28;20446;-47
2023/03/10 08:33:11;;;;;;;7.40;5.43;;;;;;;;;;5093230;28;20423;-46
2023/03/10 08:35:38;;;;;;;12.33;5.33;;;;;;;;;;5093460;28;21118;-48
2023/03/10 08:38:05;;;;;;;8.40;5.23;;;;;;;;;;5092206;28;20413;-46
2023/03/10 08:40:31;;;;;;;6.83;4.53;;;;;;;;;;5090446;28;20473;-47
2023/03/10 08:43:00;;;;;;;12.90;4.10;;;;;;;;;;5093326;28;20427;-48
2023/03/10 08:45:26;;;;;;;10.10;4.73;;;;;;;;;;5098943;28;20815;-47
2023/03/10 08:47:53;;;;;;;4.83;3.80;;;;;;;;;;5087036;28;20419;-47
2023/03/10 08:50:19;;;;;;;10.47;4.20;;;;;;;;;;5092121;28;20415;-48
2023/03/10 08:52:45;;;;;;;5.90;3.70;;;;;;;;;;5091943;28;20427;-48
2023/03/10 08:55:11;;;;;;;4.53;3.17;;;;;;;;;;5095513;28;20891;-48
2023/03/10 08:57:38;;;;;;;10.87;4.23;;;;;;;;;;5093062;28;20445;-47
2023/03/10 09:00:05;;;;;;;10.60;2.73;;;;;;;;;;5092463;28;20396;-48
2023/03/10 09:02:32;;;;;;;6.67;3.00;;;;;;;;;;5092350;28;20836;-47
2023/03/10 09:04:58;;;;;;;5.90;2.60;;;;;;;;;;5090855;28;20481;-49
2023/03/10 09:07:25;;;;;;;8.50;2.83;;;;;;;;;;5091902;28;20427;-49
2023/03/10 09:09:51;;;;;;;5.60;2.43;;;;;;;;;;5096965;28;20519;-46
2023/03/10 09:12:18;;;;;;;5.77;2.50;;;;;;;;;;5091857;28;21159;-49
2023/03/10 09:14:44;;;;;;;9.00;2.70;;;;;;;;;;5092604;28;20424;-48
2023/03/10 09:17:11;;;;;;;5.53;2.10;;;;;;;;;;5092697;28;20881;-48
2023/03/10 09:19:37;;;;;;;10.20;3.10;;;;;;;;;;5090106;28;20494;-48
2023/03/10 09:22:04;;;;;;;5.40;2.63;;;;;;;;;;5091116;28;20511;-48
2023/03/10 09:24:30;;;;;;;4.83;2.70;;;;;;;;;;5090106;28;20412;-48
2023/03/10 09:26:56;;;;;;;3.40;2.77;;;;;;;;;;5092518;28;20459;-47
2023/03/10 09:29:22;;;;;;;5.90;3.07;;;;;;;;;;5090234;28;20477;-48
2023/03/10 09:31:48;;;;;;;6.83;3.10;;;;;;;;;;5083429;28;20428;-48
2023/03/10 09:34:15;;;;;;;6.33;2.47;;;;;;;;;;5091412;28;20408;-48
2023/03/10 09:36:41;;;;;;;5.47;3.23;;;;;;;;;;5095279;28;20476;-48
2023/03/10 09:39:06;;;;;;;12.67;3.43;;;;;;;;;;5092298;28;20895;-47
2023/03/10 09:41:40;;;;;;;5.37;2.70;;;;;;;;;;5091485;28;20825;-49
2023/03/10 09:44:06;;;;;;;5.13;3.30;;;;;;;;;;5092187;28;20407;-48
2023/03/10 09:46:49;;;;;;;5.77;3.33;;;;;;;;;;5092139;28;20838;-47
2023/03/10 09:49:30;;;;;;;4.20;3.30;;;;;;;;;;5085730;28;20500;-46
2023/03/10 09:51:56;;;;;;;4.67;2.67;;;;;;;;;;5089261;28;20474;-47
2023/03/10 09:54:36;;;;;;;3.03;2.43;;;;;;;;;;5092151;28;20406;-48
2023/03/10 09:57:08;;;;;;;7.37;3.30;;;;;;;;;;5084625;28;20465;-47
2023/03/10 09:59:36;;;;;;;4.80;3.10;;;;;;;;;;5086012;28;20422;-48
2023/03/10 10:02:14;;;;;;;9.97;2.70;;;;;;;;;;5090170;28;20962;-47
2023/03/10 10:04:42;;;;;;;4.30;3.07;;;;;;;;;;5091981;28;20460;-48
2023/03/10 10:07:16;;;;;;;4.07;2.63;;;;;;;;;;5081427;28;20458;-47
2023/03/10 10:10:05;;;;;;;6.20;2.60;;;;;;;;;;5088177;28;20403;-46
2023/03/10 10:12:31;;;;;;;11.60;2.80;;;;;;;;;;5083104;28;20806;-46
2023/03/10 10:15:15;;;;;;;9.67;3.40;;;;;;;;;;5092116;28;20524;-47
2023/03/10 10:18:10;;;;;;;5.40;2.63;;;;;;;;;;5090685;28;20464;-46
2023/03/10 10:20:43;;;;;;;8.40;3.07;;;;;;;;;;5089125;28;20419;-46
2023/03/10 10:23:41;;;;;;;11.23;2.50;;;;;;;;;;5091454;28;20426;-46
2023/03/10 10:26:11;;;;;;;5.93;2.57;;;;;;;;;;5078821;28;21073;-48
2023/03/10 10:28:59;;;;;;;4.40;2.67;;;;;;;;;;5087359;28;20415;-47
2023/03/10 10:31:26;;;;;;;5.33;2.50;;;;;;;;;;5093959;28;20473;-46
2023/03/10 10:33:55;;;;;;;8.07;3.40;;;;;;;;;;5095607;28;20414;-46
2023/03/10 10:36:24;;;;;;;8.80;2.90;;;;;;;;;;5099289;28;20403;-46
2023/03/10 10:38:51;;;;;;;8.27;2.97;;;;;;;;;;5095519;28;20413;-47
2023/03/10 10:41:20;;;;;;;6.30;2.70;;;;;;;;;;5094588;28;20413;-46
2023/03/10 10:43:47;;;;;;;12.60;3.63;;;;;;;;;;5094758;28;20861;-47
2023/03/10 10:46:14;;;;;;;7.37;3.23;;;;;;;;;;5095572;28;21011;-46
2023/03/10 10:48:49;;;;;;;6.33;2.67;;;;;;;;;;5095450;28;20423;-47
2023/03/10 10:51:27;;;;;;;7.40;2.90;;;;;;;;;;5098144;28;20486;-47
2023/03/10 10:53:53;;;;;;;5.87;3.43;;;;;;;;;;5095356;28;21061;-47
2023/03/10 10:56:19;;;;;;;9.40;3.47;;;;;;;;;;5093619;28;20507;-46
2023/03/10 10:59:02;;;;;;;6.67;2.93;;;;;;;;;;5094051;28;20396;-46
2023/03/10 11:01:45;;;;;;;5.40;2.57;;;;;;;;;;5093067;28;20441;-48
2023/03/10 11:04:12;;;;;;;6.63;2.70;;;;;;;;;;5086074;28;20648;-46
2023/03/10 11:06:38;;;;;;;8.80;2.90;;;;;;;;;;5097867;28;20976;-47
2023/03/10 11:09:07;;;;;;;4.10;2.60;;;;;;;;;;5094949;28;20412;-46
2023/03/10 11:11:33;;;;;;;4.90;2.30;;;;;;;;;;5092961;28;20461;-47
2023/03/10 11:14:18;;;;;;;6.60;3.43;;;;;;;;;;5094116;28;20459;-46
2023/03/10 11:16:54;;;;;;;9.07;2.80;;;;;;;;;;5095631;28;20940;-47
2023/03/10 11:19:39;;;;;;;7.40;3.00;;;;;;;;;;5093273;28;20827;-45
2023/03/10 11:22:25;;;;;;;9.33;3.67;;;;;;;;;;5093331;28;20432;-46
2023/03/10 11:25:09;;;;;;;7.77;3.47;;;;;;;;;;5085121;28;20410;-46
2023/03/10 11:27:41;;;;;;;11.17;4.20;;;;;;;;;;5094118;28;20876;-46
2023/03/10 11:30:11;;;;;;;8.00;3.60;;;;;;;;;;5090438;28;20435;-45
2023/03/10 11:32:46;;;;;;;7.03;3.60;;;;;;;;;;5088691;28;20432;-46
2023/03/10 11:35:21;;;;;;;8.00;3.80;;;;;;;;;;5086697;28;20399;-45
2023/03/10 11:37:51;;;;;;;10.13;3.60;;;;;;;;;;5094620;28;20447;-45
2023/03/10 11:40:29;;;;;;;3.90;2.70;;;;;;;;;;5093063;28;20405;-45
2023/03/10 11:43:14;;;;;;;6.70;2.37;;;;;;;;;;5089518;28;20790;-45
2023/03/10 11:45:52;;;;;;;3.73;2.40;;;;;;;;;;5091921;28;20541;-45
2023/03/10 11:48:18;;;;;;;5.97;2.43;;;;;;;;;;5086536;28;20436;-45
2023/03/10 11:50:48;;;;;;;8.20;2.90;;;;;;;;;;5091413;28;20407;-46
2023/03/10 11:53:33;;;;;;;5.83;2.00;;;;;;;;;;5093992;28;20438;-45
2023/03/10 11:56:00;;;;;;;6.20;2.07;;;;;;;;;;5093461;28;20828;-45
2023/03/10 11:58:45;;;;;;;6.60;3.00;;;;;;;;;;5090392;28;20793;-45
2023/03/10 12:01:37;;;;;;;2.47;2.10;;;;;;;;;;5087162;28;20813;-44
2023/03/10 12:04:21;;;;;;;6.30;2.90;;;;;;;;;;5083497;28;20422;-44
2023/03/10 12:07:02;;;;;;;3.97;2.43;;;;;;;;;;5093736;28;20463;-45
2023/03/10 12:09:38;;;;;;;7.80;2.50;;;;;;;;;;5093225;28;20790;-45
2023/03/10 12:12:04;;;;;;;8.33;3.20;;;;;;;;;;5092733;28;20427;-45
2023/03/10 12:14:32;;;;;;;6.23;2.23;;;;;;;;;;5093454;28;20434;-45
2023/03/10 12:16:58;;;;;;;5.83;2.40;;;;;;;;;;5093671;28;20494;-45
2023/03/10 12:19:24;;;;;;;9.20;2.60;;;;;;;;;;5093378;28;20412;-46
2023/03/10 12:22:09;;;;;;;4.23;2.03;;;;;;;;;;5087908;28;20623;-46
2023/03/10 12:24:45;;;;;;;4.30;2.33;;;;;;;;;;5093356;28;20395;-46
2023/03/10 12:27:13;;;;;;;4.63;2.23;;;;;;;;;;5093233;28;20462;-46
2023/03/10 12:29:40;;;;;;;3.57;2.17;;;;;;;;;;5089597;28;20419;-46
2023/03/10 12:32:26;;;;;;;5.50;2.20;;;;;;;;;;5093971;28;20919;-46
2023/03/10 12:35:30;;;;;;;6.43;2.40;;;;;;;;;;5093191;28;20409;-46
2023/03/10 12:38:23;;;;;;;6.10;2.00;;;;;;;;;;5069272;28;20839;-46
2023/03/10 12:40:51;;;;;;;3.27;2.23;;;;;;;;;;5067537;28;20534;-46
2023/03/10 12:43:40;;;;;;;6.50;2.40;;;;;;;;;;5085179;28;20515;-46
2023/03/10 12:46:07;;;;;;;4.70;1.67;;;;;;;;;;5086596;28;20467;-46
2023/03/10 12:48:36;;;;;;;7.90;2.40;;;;;;;;;;5093108;28;20430;-46
2023/03/10 12:51:03;;;;;;;4.80;2.10;;;;;;;;;;5097767;28;20419;-46
2023/03/10 12:53:37;;;;;;;2.27;1.80;;;;;;;;;;5092792;28;20823;-45
2023/03/10 12:56:12;;;;;;;3.87;1.90;;;;;;;;;;5087952;28;20476;-46
2023/03/10 12:58:45;;;;;;;2.30;1.63;;;;;;;;;;5092633;28;20930;-46
2023/03/10 13:01:12;;;;;;;2.60;1.67;;;;;;;;;;5085988;28;20445;-46
2023/03/10 13:03:46;;;;;;;3.93;2.17;;;;;;;;;;5088772;28;20557;-46
2023/03/10 13:06:12;;;;;;;6.00;2.50;;;;;;;;;;5097963;28;20446;-46
2023/03/10 13:08:47;;;;;;;3.23;1.90;;;;;;;;;;5090709;28;20771;-46
2023/03/10 13:11:22;;;;;;;2.67;1.70;;;;;;;;;;5092673;28;20400;-45
2023/03/10 13:13:50;;;;;;;3.20;1.73;;;;;;;;;;5083029;28;20430;-45
2023/03/10 13:16:33;;;;;;;1.87;1.57;;;;;;;;;;5090527;28;20420;-46
2023/03/10 13:19:00;;;;;;;4.13;1.50;;;;;;;;;;5086631;28;20964;-45
2023/03/10 13:21:30;;;;;;;4.73;2.23;;;;;;;;;;5088910;28;20410;-46
2023/03/10 13:23:57;;;;;;;3.33;1.70;;;;;;;;;;5090399;28;20404;-47
2023/03/10 13:26:25;;;;;;;3.37;1.90;;;;;;;;;;5093787;28;20537;-46
2023/03/10 13:28:57;;;;;;;3.10;2.10;;;;;;;;;;5089831;28;20489;-46
2023/03/10 13:31:24;;;;;;;6.73;2.40;;;;;;;;;;5088492;28;20489;-46
2023/03/10 13:33:52;;;;;;;5.20;2.80;;;;;;;;;;5091541;28;20404;-46
2023/03/10 13:36:22;;;;;;;3.50;2.17;;;;;;;;;;5095597;28;20468;-46
2023/03/10 13:38:48;;;;;;;2.03;1.83;;;;;;;;;;5091821;28;20451;-46
2023/03/10 13:41:15;;;;;;;3.20;2.07;;;;;;;;;;5091164;28;20919;-46
2023/03/10 13:43:42;;;;;;;2.40;2.20;;;;;;;;;;5090553;28;20487;-46
2023/03/10 13:46:18;;;;;;;2.80;2.17;;;;;;;;;;5091592;28;20853;-46
2023/03/10 13:48:46;;;;;;;2.53;2.23;;;;;;;;;;5091642;28;20902;-45
2023/03/10 13:51:20;;;;;;;1.90;1.80;;;;;;;;;;5090080;28;20447;-45
2023/03/10 13:53:51;;;;;;;2.30;2.10;;;;;;;;;;5089014;28;20407;-47
2023/03/10 13:56:23;;;;;;;2.53;2.00;;;;;;;;;;5091678;28;20457;-46
2023/03/10 13:58:50;;;;;;;7.63;2.20;;;;;;;;;;5084908;28;20411;-46
2023/03/10 14:01:27;;;;;;;5.80;2.30;;;;;;;;;;5092973;28;20412;-46
2023/03/10 14:03:55;;;;;;;2.43;2.13;;;;;;;;;;5091804;28;20422;-46
2023/03/10 14:06:23;;;;;;;2.50;2.07;;;;;;;;;;5091472;28;20542;-47
2023/03/10 14:08:50;;;;;;;2.30;2.10;;;;;;;;;;5091580;28;20858;-46
2023/03/10 14:11:41;;;;;;;2.13;1.77;;;;;;;;;;5088667;28;20429;-46
2023/03/10 14:14:09;;;;;;;3.23;1.97;;;;;;;;;;5087303;28;20448;-46
2023/03/10 14:16:55;;;;;;;2.10;2.00;;;;;;;;;;5087542;28;20427;-46
2023/03/10 14:19:41;;;;;;;2.00;1.60;;;;;;;;;;5084422;28;20880;-46
2023/03/10 14:22:26;;;;;;;5.37;1.60;;;;;;;;;;5091747;28;20516;-46
2023/03/10 14:24:53;;;;;;;4.03;1.40;;;;;;;;;;5092096;28;20965;-46
2023/03/10 14:27:19;;;;;;;1.40;1.30;;;;;;;;;;5091364;28;20470;-46
2023/03/10 14:29:48;;;;;;;1.77;1.67;;;;;;;;;;5091167;28;20414;-46
2023/03/10 14:32:15;;;;;;;1.90;1.10;;;;;;;;;;5089590;28;20431;-46
2023/03/10 14:34:41;;;;;;;4.40;1.50;;;;;;;;;;5091424;28;20425;-46
2023/03/10 14:37:07;;;;;;;1.30;1.20;;;;;;;;;;5083463;28;20403;-46
2023/03/10 14:39:34;;;;;;;1.30;1.20;;;;;;;;;;5091379;28;20454;-47
2023/03/10 14:42:01;;;;;;;1.40;1.30;;;;;;;;;;5085318;28;20444;-47
2023/03/10 14:44:28;;;;;;;2.00;1.37;;;;;;;;;;5090175;28;20510;-47
2023/03/10 14:46:54;;;;;;;1.87;1.77;;;;;;;;;;5091087;28;20451;-47
2023/03/10 14:49:23;;;;;;;3.17;1.80;;;;;;;;;;5091222;28;20411;-47
2023/03/10 14:51:50;;;;;;;2.13;1.90;;;;;;;;;;5098010;28;20491;-47
2023/03/10 14:54:18;;;;;;;3.53;1.80;;;;;;;;;;5091333;28;20491;-47